Time;durP1;ratioP1;P1;durP2;ratioP2;P2;SDS_P1;SDS_P2;PMS_P1;PMS_P2;Temp;Humidity;BMP_temperature;BMP_pressure;BME280_temperature;BME280_humidity;BME280_pressure;Samples;Min_cycle;Max_cycle;Signal;HPM_P1;HPM_P2
2022/08/07 00:01:50;;;;;;;2.15;1.40;;;;;;;16.86;71.38;99238.84;5034456;28;20409;-61
2022/08/07 00:04:35;;;;;;;1.60;1.20;;;;;;;16.98;70.82;99236.94;5041924;28;20063;-60
2022/08/07 00:07:20;;;;;;;4.03;1.23;;;;;;;16.74;71.79;99238.13;5031992;28;20040;-60
2022/08/07 00:10:05;;;;;;;2.10;1.25;;;;;;;16.64;72.49;99240.72;5031441;28;20037;-60
2022/08/07 00:12:51;;;;;;;1.98;1.17;;;;;;;16.54;72.41;99237.19;5033150;28;20049;-60
2022/08/07 00:15:36;;;;;;;2.53;1.13;;;;;;;16.75;71.41;99243.28;5025283;28;20469;-60
2022/08/07 00:18:23;;;;;;;2.63;1.20;;;;;;;16.82;71.62;99243.59;5032399;28;20038;-60
2022/08/07 00:21:09;;;;;;;1.88;1.10;;;;;;;16.74;71.67;99231.00;5031619;28;20046;-60
2022/08/07 00:23:54;;;;;;;1.80;1.30;;;;;;;16.80;71.35;99232.28;5030626;28;20046;-61
2022/08/07 00:26:39;;;;;;;1.30;1.00;;;;;;;16.67;72.40;99236.97;5060735;28;20041;-62
2022/08/07 00:29:25;;;;;;;2.28;1.30;;;;;;;16.36;72.97;99233.38;5055061;28;20384;-61
2022/08/07 00:32:12;;;;;;;1.80;1.00;;;;;;;16.45;72.87;99233.56;5030819;28;20060;-61
2022/08/07 00:34:57;;;;;;;2.58;1.20;;;;;;;16.68;72.14;99230.72;5057436;28;20095;-61
2022/08/07 00:37:42;;;;;;;1.95;1.02;;;;;;;16.62;72.20;99246.16;5030595;28;20033;-62
2022/08/07 00:40:28;;;;;;;3.00;1.00;;;;;;;16.58;72.07;99239.44;5032205;28;20053;-61
2022/08/07 00:43:13;;;;;;;1.40;0.93;;;;;;;16.48;72.38;99243.88;5034659;28;20111;-61
2022/08/07 00:46:00;;;;;;;2.67;1.13;;;;;;;16.46;72.52;99243.16;5030993;28;20064;-62
2022/08/07 00:48:44;;;;;;;2.03;1.10;;;;;;;16.79;71.40;99243.88;5031184;28;20431;-61
2022/08/07 00:51:30;;;;;;;2.05;1.10;;;;;;;16.80;71.04;99249.97;5043932;28;20040;-61
2022/08/07 00:54:14;;;;;;;2.53;1.10;;;;;;;16.79;70.79;99245.66;5022558;28;20037;-60
2022/08/07 00:57:00;;;;;;;1.67;1.10;;;;;;;16.84;70.46;99240.81;5044490;28;20099;-59
2022/08/07 00:59:44;;;;;;;2.03;1.27;;;;;;;16.59;71.56;99240.28;5022271;28;20385;-60
2022/08/07 01:02:30;;;;;;;1.77;1.33;;;;;;;16.52;71.81;99245.25;5031210;28;20387;-61
2022/08/07 01:05:16;;;;;;;3.50;1.17;;;;;;;16.69;71.29;99237.69;5042873;28;20095;-60
2022/08/07 01:08:01;;;;;;;2.08;1.10;;;;;;;16.87;69.97;99224.66;5042815;28;20072;-60
2022/08/07 01:10:46;;;;;;;1.35;0.90;;;;;;;16.97;69.82;99227.34;5040863;28;20091;-61
2022/08/07 01:13:30;;;;;;;2.85;1.10;;;;;;;16.85;69.98;99223.94;5031066;28;20117;-61
2022/08/07 01:16:15;;;;;;;3.05;1.15;;;;;;;16.96;69.27;99221.19;5043932;28;20408;-61
2022/08/07 01:19:04;;;;;;;1.30;1.02;;;;;;;16.86;69.37;99230.91;5031296;28;20045;-60
2022/08/07 01:21:51;;;;;;;2.70;1.00;;;;;;;16.80;69.98;99224.34;5030884;28;20523;-61
2022/08/07 01:24:37;;;;;;;1.42;1.17;;;;;;;16.70;69.93;99216.38;5029724;28;20080;-61
2022/08/07 01:27:21;;;;;;;1.98;1.10;;;;;;;16.58;70.39;99228.88;5029958;28;20477;-61
2022/08/07 01:30:08;;;;;;;2.28;1.25;;;;;;;16.74;70.15;99235.47;5034893;28;20507;-61
2022/08/07 01:32:53;;;;;;;3.42;1.10;;;;;;;16.72;70.01;99232.13;5036308;28;20044;-61
2022/08/07 01:35:39;;;;;;;3.15;1.20;;;;;;;16.69;69.92;99235.03;5015921;28;20457;-61
2022/08/07 01:38:24;;;;;;;2.58;1.35;;;;;;;16.83;69.51;99225.88;5033022;28;20057;-60
2022/08/07 01:41:10;;;;;;;1.85;1.17;;;;;;;16.79;69.47;99217.41;5034506;28;20429;-61
2022/08/07 01:43:54;;;;;;;3.05;1.23;;;;;;;17.01;68.48;99227.91;5044822;28;20055;-61
2022/08/07 01:46:40;;;;;;;1.90;1.27;;;;;;;17.02;67.89;99230.41;5034674;28;20056;-61
2022/08/07 01:49:26;;;;;;;2.00;1.17;;;;;;;16.89;68.64;99222.72;5036699;28;20052;-61
2022/08/07 01:52:12;;;;;;;2.60;1.10;;;;;;;17.20;67.49;99224.50;5033235;28;20038;-61
2022/08/07 01:54:59;;;;;;;2.38;1.27;;;;;;;16.80;68.77;99220.88;5032995;28;20064;-61
2022/08/07 01:57:51;;;;;;;3.05;1.25;;;;;;;16.96;67.81;99213.25;5032920;28;20121;-61
2022/08/07 02:00:38;;;;;;;2.53;0.90;;;;;;;17.14;67.13;99230.34;5034295;28;20115;-62
2022/08/07 02:03:25;;;;;;;1.98;0.90;;;;;;;16.89;67.79;99217.44;5071437;28;20530;-61
2022/08/07 02:06:15;;;;;;;1.48;0.90;;;;;;;16.70;68.91;99224.31;5054031;28;20456;-61
2022/08/07 02:09:06;;;;;;;1.58;1.00;;;;;;;17.07;67.36;99225.53;5033645;28;20057;-60
2022/08/07 02:11:55;;;;;;;1.80;1.00;;;;;;;16.93;67.26;99231.22;5032431;28;20388;-60
2022/08/07 02:14:42;;;;;;;1.60;1.20;;;;;;;16.98;66.91;99223.72;5060736;28;20053;-60
2022/08/07 02:17:37;;;;;;;1.70;0.98;;;;;;;16.89;66.96;99225.38;5033873;28;20041;-60
2022/08/07 02:20:22;;;;;;;1.45;1.13;;;;;;;17.00;67.26;99221.78;5032900;28;20095;-61
2022/08/07 02:23:07;;;;;;;2.00;1.05;;;;;;;17.07;66.40;99212.28;5060800;28;20041;-60
2022/08/07 02:25:55;;;;;;;2.95;1.10;;;;;;;17.20;65.82;99217.38;5032534;28;20079;-62
2022/08/07 02:28:41;;;;;;;1.70;1.23;;;;;;;17.29;65.13;99209.56;5033502;28;20048;-61
2022/08/07 02:31:28;;;;;;;1.70;1.20;;;;;;;17.33;64.75;99209.16;5046494;28;20064;-61
2022/08/07 02:34:13;;;;;;;2.15;0.90;;;;;;;17.19;65.07;99218.34;5030845;28;20038;-61
2022/08/07 02:37:07;;;;;;;3.50;1.05;;;;;;;16.83;66.65;99224.09;5045892;28;20053;-61
2022/08/07 02:39:55;;;;;;;2.17;0.95;;;;;;;16.91;66.18;99223.41;5032773;28;20115;-61
2022/08/07 02:42:41;;;;;;;2.50;1.20;;;;;;;17.17;65.02;99236.16;5032469;28;20056;-61
2022/08/07 02:45:30;;;;;;;1.80;0.98;;;;;;;17.19;65.48;99217.50;5051066;28;20064;-61
2022/08/07 02:48:14;;;;;;;2.60;1.30;;;;;;;17.14;65.48;99227.69;5042732;28;20048;-61
2022/08/07 02:51:12;;;;;;;1.83;1.08;;;;;;;17.10;66.21;99222.63;5047634;28;20033;-62
2022/08/07 02:53:59;;;;;;;2.20;0.90;;;;;;;17.01;67.01;99225.25;5046222;28;20041;-62
2022/08/07 02:56:46;;;;;;;1.30;0.90;;;;;;;16.99;68.38;99233.31;5042011;28;20040;-61
2022/08/07 02:59:33;;;;;;;2.45;1.08;;;;;;;16.87;67.81;99225.47;5037929;28;20033;-61
2022/08/07 03:02:21;;;;;;;4.40;1.40;;;;;;;16.43;69.87;99223.13;5045549;28;20452;-60
2022/08/07 03:05:07;;;;;;;1.95;1.20;;;;;;;16.45;69.89;99230.91;5033795;28;20033;-61
2022/08/07 03:07:54;;;;;;;2.08;1.40;;;;;;;16.45;68.89;99228.28;5039349;28;20033;-61
2022/08/07 03:10:40;;;;;;;1.73;1.20;;;;;;;16.50;69.04;99228.69;5032881;28;20033;-61
2022/08/07 03:13:24;;;;;;;1.48;0.77;;;;;;;16.68;68.22;99233.38;5035163;28;20041;-61
2022/08/07 03:16:12;;;;;;;1.50;0.90;;;;;;;16.54;68.28;99227.47;5037486;28;20052;-60
2022/08/07 03:19:00;;;;;;;1.60;1.10;;;;;;;16.54;68.25;99216.88;5045629;28;20041;-61
2022/08/07 03:21:45;;;;;;;2.10;1.10;;;;;;;16.20;69.24;99222.44;5030702;28;20065;-61
2022/08/07 03:24:31;;;;;;;1.58;1.00;;;;;;;16.18;69.44;99213.78;5034064;28;20099;-60
2022/08/07 03:27:20;;;;;;;2.65;1.08;;;;;;;16.50;68.54;99213.66;5032824;28;20461;-60
2022/08/07 03:30:05;;;;;;;2.70;1.23;;;;;;;16.62;67.61;99216.22;5031644;28;20148;-61
2022/08/07 03:32:53;;;;;;;2.17;1.42;;;;;;;16.38;68.09;99212.94;5041210;28;20045;-61
2022/08/07 03:35:39;;;;;;;2.65;1.13;;;;;;;16.35;68.39;99207.88;5058600;28;20120;-61
2022/08/07 03:38:24;;;;;;;3.65;1.20;;;;;;;16.50;67.89;99216.31;5031207;28;20038;-60
2022/08/07 03:41:09;;;;;;;8.98;1.55;;;;;;;16.23;68.77;99199.22;5045092;28;20508;-61
2022/08/07 03:43:55;;;;;;;2.33;0.95;;;;;;;16.42;68.17;99199.47;5030898;28;20064;-60
2022/08/07 03:46:41;;;;;;;2.03;1.10;;;;;;;16.40;68.14;99199.59;5032197;28;20067;-60
2022/08/07 03:49:28;;;;;;;1.98;1.15;;;;;;;16.20;68.69;99198.66;5044753;28;20042;-61
2022/08/07 03:52:14;;;;;;;1.90;0.90;;;;;;;16.30;68.56;99196.06;5030950;28;20081;-60
2022/08/07 03:55:00;;;;;;;2.65;1.23;;;;;;;16.28;68.34;99190.06;5037691;28;20091;-60
2022/08/07 03:57:47;;;;;;;1.67;1.10;;;;;;;16.33;68.11;99199.28;5043938;28;20132;-61
2022/08/07 04:00:34;;;;;;;2.00;1.10;;;;;;;16.39;67.77;99197.91;5039897;28;20067;-61
2022/08/07 04:03:19;;;;;;;1.88;1.10;;;;;;;16.24;68.58;99200.88;5034070;28;20033;-61
2022/08/07 04:06:09;;;;;;;1.20;0.90;;;;;;;16.39;67.79;99205.81;5032530;28;20045;-62
2022/08/07 04:08:54;;;;;;;1.63;1.10;;;;;;;16.41;67.57;99203.91;5037375;28;20473;-65
2022/08/07 04:11:42;;;;;;;3.88;1.23;;;;;;;16.62;67.00;99203.00;5040885;28;20045;-60
2022/08/07 04:14:28;;;;;;;1.25;1.00;;;;;;;16.42;67.62;99204.75;5029659;28;20049;-61
2022/08/07 04:17:14;;;;;;;1.90;1.20;;;;;;;16.50;67.15;99205.75;5030229;28;20473;-60
2022/08/07 04:19:59;;;;;;;4.43;1.10;;;;;;;16.44;67.53;99213.34;5030467;28;20046;-60
2022/08/07 04:22:48;;;;;;;3.47;1.33;;;;;;;16.57;67.43;99224.56;5030612;28;20069;-59
2022/08/07 04:25:37;;;;;;;1.40;1.05;;;;;;;16.68;67.22;99231.56;5030432;28;20052;-62
2022/08/07 04:28:22;;;;;;;1.52;1.13;;;;;;;16.40;68.06;99231.31;5031237;28;20037;-60
2022/08/07 04:31:09;;;;;;;1.77;0.93;;;;;;;16.61;67.45;99231.25;5039707;28;20045;-59
2022/08/07 04:33:54;;;;;;;2.08;1.05;;;;;;;16.81;66.62;99227.84;5058732;28;20049;-61
2022/08/07 04:36:39;;;;;;;2.13;1.20;;;;;;;16.59;67.16;99233.19;5032020;28;20053;-61
2022/08/07 04:39:25;;;;;;;1.65;1.27;;;;;;;16.66;66.78;99237.97;5028328;28;20384;-61
2022/08/07 04:42:09;;;;;;;4.32;1.38;;;;;;;16.38;68.13;99230.59;5024689;28;20387;-61
2022/08/07 04:44:57;;;;;;;2.17;1.08;;;;;;;16.54;67.79;99237.19;5033102;28;20041;-60
2022/08/07 04:47:53;;;;;;;2.33;1.20;;;;;;;16.74;66.87;99233.66;5029530;28;20435;-60
2022/08/07 04:50:46;;;;;;;2.47;1.10;;;;;;;16.89;66.40;99237.75;5034881;28;20042;-60
2022/08/07 04:53:58;;;;;;;2.53;1.05;;;;;;;17.01;65.99;99235.84;5050062;28;20116;-59
2022/08/07 04:56:48;;;;;;;2.95;1.33;;;;;;;16.72;66.97;99237.41;5035954;28;20044;-61
2022/08/07 04:59:45;;;;;;;3.60;1.58;;;;;;;16.67;67.01;99239.63;5033662;28;20061;-61
2022/08/07 05:02:49;;;;;;;2.03;1.25;;;;;;;16.56;67.58;99240.56;5040960;28;20072;-61
2022/08/07 05:05:42;;;;;;;1.50;1.10;;;;;;;16.61;67.91;99241.81;5030417;28;20484;-61
2022/08/07 05:08:41;;;;;;;1.90;1.10;;;;;;;16.74;67.07;99232.84;5039891;28;20033;-61
2022/08/07 05:11:34;;;;;;;3.40;1.10;;;;;;;16.74;67.22;99230.19;5029827;28;20038;-61
2022/08/07 05:14:25;;;;;;;3.22;1.10;;;;;;;16.70;67.48;99242.00;5029877;28;20044;-61
2022/08/07 05:17:13;;;;;;;1.30;1.00;;;;;;;16.79;66.91;99237.72;5032321;28;20053;-61
2022/08/07 05:19:58;;;;;;;2.40;1.35;;;;;;;16.92;66.37;99237.47;5033691;28;20494;-61
2022/08/07 05:22:46;;;;;;;1.83;0.90;;;;;;;17.05;66.02;99235.44;5025725;28;20108;-61
2022/08/07 05:25:33;;;;;;;2.78;1.33;;;;;;;17.11;66.11;99242.84;5036590;28;20037;-61
2022/08/07 05:28:19;;;;;;;2.08;1.25;;;;;;;16.89;66.62;99241.25;5020413;28;20065;-62
2022/08/07 05:31:05;;;;;;;3.35;1.33;;;;;;;16.98;66.55;99245.72;5061676;28;20034;-61
2022/08/07 05:33:52;;;;;;;2.13;0.93;;;;;;;16.94;66.83;99244.31;5033865;28;20047;-61
2022/08/07 05:36:42;;;;;;;2.20;1.13;;;;;;;17.02;66.55;99245.44;5046852;28;20041;-61
2022/08/07 05:39:38;;;;;;;1.73;1.10;;;;;;;17.38;65.51;99245.00;5033585;28;20088;-61
2022/08/07 05:42:24;;;;;;;3.17;1.33;;;;;;;17.32;65.15;99236.63;5044043;28;20041;-61
2022/08/07 05:45:10;;;;;;;3.45;1.55;;;;;;;17.27;65.61;99248.59;5046912;28;20038;-61
2022/08/07 05:47:55;;;;;;;1.92;1.20;;;;;;;17.48;65.13;99240.53;5037256;28;20424;-61
2022/08/07 05:50:40;;;;;;;1.38;1.13;;;;;;;17.64;64.71;99245.28;5033301;28;20610;-61
2022/08/07 05:53:26;;;;;;;1.85;1.13;;;;;;;17.75;64.45;99248.75;5047435;28;20428;-61
2022/08/07 05:56:14;;;;;;;1.73;1.08;;;;;;;17.83;64.16;99244.44;5047465;28;20473;-61
2022/08/07 05:59:05;;;;;;;3.35;1.20;;;;;;;17.76;64.34;99247.78;5041788;28;20079;-61
2022/08/07 06:01:51;;;;;;;1.80;1.40;;;;;;;17.82;63.94;99252.53;5033476;28;20493;-62
2022/08/07 06:04:39;;;;;;;2.00;1.30;;;;;;;17.72;64.64;99253.34;5034087;28;20428;-61
2022/08/07 06:07:26;;;;;;;2.20;1.65;;;;;;;18.12;63.71;99252.47;5044511;28;20392;-61
2022/08/07 06:10:11;;;;;;;3.58;1.40;;;;;;;18.07;63.76;99253.75;5072938;28;20473;-61
2022/08/07 06:13:00;;;;;;;3.90;1.20;;;;;;;18.29;63.07;99250.94;5034216;28;20045;-61
2022/08/07 06:15:47;;;;;;;3.90;1.65;;;;;;;18.01;63.99;99261.44;5041114;28;20045;-62
2022/08/07 06:18:39;;;;;;;2.40;1.40;;;;;;;18.14;63.66;99256.69;5042148;28;20483;-62
2022/08/07 06:21:25;;;;;;;2.63;1.20;;;;;;;18.33;63.02;99250.50;5019446;28;20389;-62
2022/08/07 06:24:11;;;;;;;3.00;1.30;;;;;;;18.38;63.30;99257.22;5042040;28;20095;-62
2022/08/07 06:26:57;;;;;;;2.42;1.13;;;;;;;18.59;62.47;99259.63;5041100;28;20065;-61
2022/08/07 06:29:43;;;;;;;1.95;1.15;;;;;;;18.55;62.85;99261.75;5046699;28;20376;-63
2022/08/07 06:32:29;;;;;;;2.22;1.30;;;;;;;18.73;62.08;99258.34;5049432;28;20381;-62
2022/08/07 06:35:14;;;;;;;3.42;1.33;;;;;;;18.81;61.94;99268.22;5039023;28;20048;-62
2022/08/07 06:37:59;;;;;;;3.20;1.25;;;;;;;19.20;60.97;99270.69;5042385;28;20041;-60
2022/08/07 06:40:48;;;;;;;2.45;1.35;;;;;;;19.23;60.52;99264.25;5033658;28;20473;-60
2022/08/07 06:43:36;;;;;;;3.20;1.30;;;;;;;19.19;61.17;99263.69;5046460;28;20053;-60
2022/08/07 06:46:28;;;;;;;4.50;1.63;;;;;;;19.03;62.07;99263.50;5049936;28;20064;-60
2022/08/07 06:49:14;;;;;;;1.80;1.42;;;;;;;18.62;63.25;99267.31;5043531;28;20041;-60
2022/08/07 06:52:00;;;;;;;2.13;1.30;;;;;;;19.18;61.84;99262.03;5029735;28;20472;-60
2022/08/07 06:54:50;;;;;;;3.42;1.70;;;;;;;19.58;60.90;99265.25;5044868;28;20060;-60
2022/08/07 06:57:37;;;;;;;3.03;1.45;;;;;;;19.65;60.25;99275.28;5045017;28;20038;-61
2022/08/07 07:00:24;;;;;;;4.18;1.85;;;;;;;19.85;60.04;99267.13;5034993;28;20064;-61
2022/08/07 07:03:10;;;;;;;3.38;1.30;;;;;;;20.17;59.44;99263.09;5037591;28;20155;-60
2022/08/07 07:05:55;;;;;;;3.47;1.70;;;;;;;21.17;56.29;99269.75;5036266;28;20049;-61
2022/08/07 07:08:40;;;;;;;3.60;1.90;;;;;;;21.83;54.38;99260.22;5033336;28;20091;-61
2022/08/07 07:11:25;;;;;;;3.22;1.45;;;;;;;23.18;50.34;99264.19;5018140;28;20048;-61
2022/08/07 07:14:12;;;;;;;2.55;1.67;;;;;;;22.14;52.54;99266.69;5021592;28;20468;-61
2022/08/07 07:17:01;;;;;;;2.20;1.35;;;;;;;21.62;54.67;99261.53;5052959;28;20057;-60
2022/08/07 07:19:50;;;;;;;1.88;1.50;;;;;;;21.27;56.01;99264.28;5032874;28;20038;-63
2022/08/07 07:22:35;;;;;;;2.25;1.70;;;;;;;20.90;56.72;99254.81;5031821;28;20037;-62
2022/08/07 07:25:21;;;;;;;3.40;2.13;;;;;;;20.84;57.20;99252.81;5031416;28;20041;-61
2022/08/07 07:28:36;;;;;;;3.67;1.77;;;;;;;20.86;57.34;99262.28;5032719;28;20512;-62
2022/08/07 07:31:30;;;;;;;2.35;1.30;;;;;;;20.64;58.16;99253.06;5032758;28;20124;-62
2022/08/07 07:34:32;;;;;;;3.75;1.60;;;;;;;20.70;58.08;99254.25;5032557;28;20041;-62
2022/08/07 07:37:22;;;;;;;2.72;1.80;;;;;;;21.03;56.84;99254.41;5035678;28;20037;-61
2022/08/07 07:40:14;;;;;;;5.10;1.80;;;;;;;22.40;52.95;99244.31;5085358;28;20037;-61
2022/08/07 07:43:02;;;;;;;2.72;1.42;;;;;;;21.93;53.94;99240.56;5045414;28;20116;-62
2022/08/07 07:45:48;;;;;;;2.50;1.45;;;;;;;21.96;54.03;99250.88;5032058;28;20056;-61
2022/08/07 07:48:35;;;;;;;4.38;1.70;;;;;;;22.45;53.49;99254.47;5031398;28;20041;-60
2022/08/07 07:51:21;;;;;;;3.08;1.70;;;;;;;22.41;53.06;99256.63;5016316;28;20393;-61
2022/08/07 07:54:07;;;;;;;2.15;1.58;;;;;;;21.33;55.92;99257.47;5042055;28;20120;-62
2022/08/07 07:56:54;;;;;;;1.85;1.33;;;;;;;21.17;56.57;99267.09;5038022;28;20140;-61
2022/08/07 07:59:40;;;;;;;3.50;1.45;;;;;;;21.52;55.75;99274.16;5035112;28;20121;-61
2022/08/07 08:02:27;;;;;;;2.20;1.30;;;;;;;21.94;54.74;99271.53;5058729;28;20044;-62
2022/08/07 08:05:15;;;;;;;3.05;1.48;;;;;;;21.70;55.07;99268.69;5031981;28;20045;-62
2022/08/07 08:08:00;;;;;;;2.72;1.50;;;;;;;22.01;54.41;99261.88;5031387;28;20061;-61
2022/08/07 08:10:45;;;;;;;1.73;1.42;;;;;;;22.32;53.75;99257.66;5038698;28;20052;-62
2022/08/07 08:13:31;;;;;;;3.08;1.50;;;;;;;21.56;55.72;99250.69;5051605;28;20041;-62
2022/08/07 08:16:20;;;;;;;2.13;1.50;;;;;;;20.93;57.84;99259.88;5031931;28;20037;-62
2022/08/07 08:19:08;;;;;;;1.65;1.40;;;;;;;21.59;56.38;99258.34;5043733;28;20037;-63
2022/08/07 08:28:08;;;;;;;3.30;1.70;;;;;;;21.71;55.48;99254.34;5041981;28;20136;-61
2022/08/07 08:30:56;;;;;;;4.07;1.70;;;;;;;21.98;55.10;99256.88;5029066;28;20068;-62
2022/08/07 08:33:42;;;;;;;2.40;1.65;;;;;;;22.01;54.42;99254.72;5031470;28;20387;-63
2022/08/07 08:36:30;;;;;;;2.33;1.58;;;;;;;21.41;56.64;99267.31;5031483;28;20061;-61
2022/08/07 08:39:16;;;;;;;4.10;1.60;;;;;;;21.56;55.67;99264.00;5043179;28;20073;-61
2022/08/07 08:42:10;;;;;;;2.60;1.55;;;;;;;22.15;54.43;99266.53;5034626;28;20037;-61
2022/08/07 08:45:07;;;;;;;3.17;1.90;;;;;;;23.53;50.68;99266.53;5044355;28;20511;-61
2022/08/07 08:47:59;;;;;;;4.22;1.98;;;;;;;25.34;46.38;99272.03;5038912;28;20085;-63
2022/08/07 08:50:53;;;;;;;3.20;1.60;;;;;;;26.39;43.66;99261.81;5033144;28;20365;-61
2022/08/07 08:53:51;;;;;;;3.25;1.77;;;;;;;26.86;41.33;99250.47;5049994;28;20033;-62
2022/08/07 08:56:40;;;;;;;3.30;1.90;;;;;;;26.32;42.53;99261.75;5040311;28;20391;-62
2022/08/07 08:59:28;;;;;;;3.23;1.40;;;;;;;26.04;43.48;99268.78;5042755;28;20052;-63
2022/08/07 09:02:36;;;;;;;2.08;1.50;;;;;;;26.16;42.91;99255.63;5037263;28;20041;-62
2022/08/07 09:05:21;;;;;;;3.15;1.73;;;;;;;27.42;40.88;99265.53;5030155;28;20060;-62
2022/08/07 09:08:12;;;;;;;1.60;1.10;;;;;;;28.11;39.57;99258.34;5022932;28;20033;-62
2022/08/07 09:11:13;;;;;;;3.58;1.50;;;;;;;26.23;42.45;99254.88;5036872;28;20037;-61
2022/08/07 09:14:13;;;;;;;3.30;1.38;;;;;;;25.68;43.71;99264.34;5037462;28;20041;-62
2022/08/07 09:17:15;;;;;;;3.50;1.52;;;;;;;25.78;43.23;99267.53;5036685;28;20191;-62
2022/08/07 09:20:22;;;;;;;1.88;1.15;;;;;;;25.86;42.94;99252.31;5037693;28;20052;-61
2022/08/07 09:23:32;;;;;;;2.95;1.55;;;;;;;26.08;43.35;99251.25;5022983;28;20542;-62
2022/08/07 09:26:23;;;;;;;3.17;1.30;;;;;;;26.08;43.06;99248.56;5040492;28;20105;-61
2022/08/07 09:29:18;;;;;;;2.63;1.50;;;;;;;26.10;42.61;99244.88;5043778;28;20139;-62
2022/08/07 09:32:20;;;;;;;1.20;0.90;;;;;;;25.56;43.72;99254.09;5039667;28;20049;-62
2022/08/07 09:35:34;;;;;;;1.73;1.33;;;;;;;25.41;44.34;99247.97;5036541;28;20037;-61
2022/08/07 09:38:35;;;;;;;2.60;1.08;;;;;;;24.89;45.31;99251.50;5050126;28;20472;-62
2022/08/07 09:41:37;;;;;;;2.58;1.35;;;;;;;24.99;45.23;99253.09;5036613;28;20064;-61
2022/08/07 09:44:52;;;;;;;3.80;1.58;;;;;;;24.06;46.80;99233.66;5049476;28;20124;-60
2022/08/07 09:48:14;;;;;;;2.88;1.60;;;;;;;23.47;47.91;99228.00;5041485;28;20060;-61
2022/08/07 09:51:28;;;;;;;2.33;1.67;;;;;;;23.22;49.17;99234.31;5037497;28;20033;-62
2022/08/07 09:54:18;;;;;;;2.35;1.48;;;;;;;24.11;47.68;99228.59;5037635;28;20041;-61
2022/08/07 09:57:31;;;;;;;3.15;1.60;;;;;;;23.82;47.77;99236.38;5044834;28;20033;-61
2022/08/07 10:00:20;;;;;;;2.72;1.33;;;;;;;24.10;47.81;99233.13;5045819;28;20093;-62
2022/08/07 10:03:29;;;;;;;2.33;1.20;;;;;;;24.43;46.82;99231.13;5048329;28;20488;-61
2022/08/07 10:06:45;;;;;;;3.10;1.40;;;;;;;24.68;46.07;99231.66;5061172;28;20081;-61
2022/08/07 10:10:06;;;;;;;2.97;2.03;;;;;;;23.72;48.47;99230.44;5034108;28;20485;-61
2022/08/07 10:12:53;;;;;;;2.67;1.50;;;;;;;24.04;48.00;99225.00;5039748;28;20056;-61
2022/08/07 10:16:05;;;;;;;2.10;1.60;;;;;;;24.41;47.38;99231.31;5040472;28;20393;-62
2022/08/07 10:18:59;;;;;;;2.03;1.33;;;;;;;24.80;46.29;99226.66;5038796;28;20049;-62
2022/08/07 10:21:58;;;;;;;5.03;1.67;;;;;;;25.21;45.86;99222.63;5061594;28;20065;-63
2022/08/07 10:25:03;;;;;;;2.05;1.60;;;;;;;24.30;47.72;99213.06;5035959;28;20045;-62
2022/08/07 10:28:09;;;;;;;4.03;1.73;;;;;;;24.34;47.29;99208.97;5033841;28;20094;-63
2022/08/07 10:31:09;;;;;;;2.58;1.70;;;;;;;25.50;45.94;99214.63;5040259;28;20079;-61
2022/08/07 10:34:38;;;;;;;1.92;1.45;;;;;;;26.06;43.96;99204.16;5045868;28;20519;-62
2022/08/07 10:37:27;;;;;;;1.95;1.55;;;;;;;25.28;45.54;99211.94;5033714;28;20471;-62
2022/08/07 10:40:28;;;;;;;4.07;2.00;;;;;;;24.83;46.39;99212.06;5045669;28;20499;-62
2022/08/07 10:43:26;;;;;;;2.70;1.73;;;;;;;24.85;46.66;99208.19;5049532;28;20095;-61
2022/08/07 10:47:02;;;;;;;3.88;1.77;;;;;;;25.52;45.40;99199.19;5039372;28;20056;-61
2022/08/07 10:50:01;;;;;;;1.95;1.38;;;;;;;25.26;45.84;99205.13;5017906;28;20074;-63
2022/08/07 10:52:54;;;;;;;2.65;1.35;;;;;;;25.98;44.20;99207.00;5032582;28;20049;-62
2022/08/07 10:55:51;;;;;;;1.50;1.33;;;;;;;26.17;43.71;99192.03;5033337;28;20037;-62
2022/08/07 10:59:00;;;;;;;3.88;1.98;;;;;;;24.94;46.27;99206.25;5033481;28;20046;-60
2022/08/07 11:01:56;;;;;;;2.45;1.75;;;;;;;25.26;46.17;99199.78;5040621;28;20049;-62
2022/08/07 11:05:34;;;;;;;2.63;2.13;;;;;;;25.15;46.05;99195.75;5038303;28;20122;-62
2022/08/07 11:08:40;;;;;;;3.03;1.80;;;;;;;24.93;46.58;99193.88;5027579;28;20543;-62
2022/08/07 11:11:35;;;;;;;3.22;1.83;;;;;;;25.24;46.48;99202.66;5032912;28;20045;-62
2022/08/07 11:14:25;;;;;;;2.60;1.83;;;;;;;25.31;46.17;99192.81;5033321;28;20076;-62
2022/08/07 11:17:32;;;;;;;3.28;2.28;;;;;;;25.06;46.45;99187.84;5035975;28;20078;-61
2022/08/07 11:20:34;;;;;;;3.78;2.00;;;;;;;24.81;47.24;99187.31;5039091;28;20454;-61
2022/08/07 11:23:30;;;;;;;3.60;2.15;;;;;;;25.40;46.10;99182.78;5048405;28;20091;-62
2022/08/07 11:26:39;;;;;;;2.55;1.90;;;;;;;25.70;44.94;99171.94;5033734;28;20037;-62
2022/08/07 11:29:34;;;;;;;3.13;1.90;;;;;;;25.06;46.33;99179.78;5046119;28;20041;-62
2022/08/07 11:32:34;;;;;;;3.75;1.83;;;;;;;24.34;47.63;99167.00;5047043;28;20048;-61
2022/08/07 11:35:53;;;;;;;2.08;1.60;;;;;;;24.71;47.83;99168.88;5044798;28;20037;-63
2022/08/07 11:39:13;;;;;;;2.53;1.50;;;;;;;25.18;46.23;99171.25;5045138;28;20044;-61
2022/08/07 11:42:12;;;;;;;2.95;1.77;;;;;;;25.37;46.20;99156.38;5039020;28;20041;-62
2022/08/07 11:45:05;;;;;;;3.15;1.52;;;;;;;24.65;45.95;99165.09;5017278;28;20033;-62
2022/08/07 11:48:22;;;;;;;2.13;1.35;;;;;;;24.53;46.80;99172.78;5031973;28;20061;-62
2022/08/07 11:51:30;;;;;;;3.50;1.75;;;;;;;24.53;46.79;99158.56;5032257;28;20045;-62
2022/08/07 11:54:23;;;;;;;2.38;1.58;;;;;;;24.30;47.77;99164.88;5032059;28;20349;-62
2022/08/07 11:57:29;;;;;;;2.58;1.35;;;;;;;24.37;46.85;99157.75;5040437;28;20037;-64
2022/08/07 12:00:18;;;;;;;2.90;1.80;;;;;;;24.50;46.43;99164.31;5032093;28;20044;-62
2022/08/07 12:03:40;;;;;;;2.03;1.30;;;;;;;24.87;45.75;99162.47;5072032;28;20037;-61
2022/08/07 12:06:53;;;;;;;2.70;1.35;;;;;;;24.72;46.12;99162.50;5030827;28;20030;-61
2022/08/07 12:09:57;;;;;;;2.72;1.40;;;;;;;25.34;44.67;99154.06;5031784;28;20069;-61
2022/08/07 12:13:03;;;;;;;3.45;1.30;;;;;;;25.31;44.79;99151.78;5017273;28;20064;-62
2022/08/07 12:16:03;;;;;;;2.70;1.55;;;;;;;24.76;46.34;99162.97;5030732;28;20033;-61
2022/08/07 12:19:06;;;;;;;1.77;1.10;;;;;;;25.45;44.60;99160.75;5030989;28;20045;-62
2022/08/07 12:22:03;;;;;;;2.13;1.48;;;;;;;26.06;43.40;99154.03;5044656;28;20065;-62
2022/08/07 12:28:37;;;;;;;1.92;1.25;;;;;;;25.94;44.01;99153.72;5031794;28;20059;-65
2022/08/07 12:32:02;;;;;;;2.03;1.40;;;;;;;26.51;42.30;99157.31;5037977;28;20053;-62
2022/08/07 12:34:50;;;;;;;1.30;1.20;;;;;;;26.38;42.21;99158.94;5030752;28;20057;-62
2022/08/07 12:37:37;;;;;;;3.80;1.20;;;;;;;26.92;41.51;99142.16;5031973;28;20049;-62
2022/08/07 12:40:26;;;;;;;3.70;1.35;;;;;;;27.34;40.81;99144.72;5031210;28;20053;-61
2022/08/07 12:43:13;;;;;;;1.55;1.13;;;;;;;27.55;40.78;99135.63;5041634;28;20037;-63
2022/08/07 12:46:11;;;;;;;1.75;1.08;;;;;;;27.80;39.73;99136.84;5030450;28;20444;-61
2022/08/07 12:49:10;;;;;;;1.92;1.27;;;;;;;27.71;39.50;99127.34;5032420;28;20102;-61
2022/08/07 12:52:01;;;;;;;1.40;1.17;;;;;;;27.76;39.49;99131.06;5030339;28;20064;-62
2022/08/07 12:54:56;;;;;;;1.73;1.00;;;;;;;28.27;39.29;99135.88;5043194;28;20112;-63
2022/08/07 12:57:43;;;;;;;4.47;1.25;;;;;;;28.90;37.00;99128.97;5043088;28;20472;-63
2022/08/07 13:00:39;;;;;;;2.45;1.00;;;;;;;28.78;37.47;99131.53;5030608;28;20492;-62
2022/08/07 13:03:50;;;;;;;1.63;1.20;;;;;;;29.66;36.57;99121.16;5031418;28;20443;-62
2022/08/07 13:06:54;;;;;;;1.80;0.93;;;;;;;30.36;35.70;99122.69;5031327;28;20044;-62
2022/08/07 13:10:18;;;;;;;1.85;1.35;;;;;;;30.25;35.02;99115.34;5031105;28;20044;-62
2022/08/07 13:13:53;;;;;;;2.92;1.30;;;;;;;29.16;36.89;99122.81;5038055;28;20053;-62
2022/08/07 13:16:44;;;;;;;2.88;1.10;;;;;;;30.94;34.11;99116.94;5033200;28;20056;-64
2022/08/07 13:19:53;;;;;;;2.65;1.10;;;;;;;31.87;32.84;99109.34;5030645;28;20029;-63
2022/08/07 13:22:51;;;;;;;1.33;0.90;;;;;;;31.99;32.43;99106.63;5030007;28;20424;-62
2022/08/07 13:25:41;;;;;;;1.67;0.82;;;;;;;31.96;32.53;99102.53;5042910;28;20072;-62
2022/08/07 13:28:38;;;;;;;1.17;0.82;;;;;;;32.02;31.99;99097.22;5030034;28;20048;-62
2022/08/07 13:31:41;;;;;;;1.98;0.90;;;;;;;31.87;31.95;99097.69;5030098;28;20120;-63
2022/08/07 13:34:41;;;;;;;4.45;0.93;;;;;;;31.32;32.82;99084.31;5034421;28;20449;-63
2022/08/07 13:37:32;;;;;;;1.67;0.98;;;;;;;30.42;34.86;99091.25;5043873;28;20386;-63
2022/08/07 13:40:45;;;;;;;1.58;1.00;;;;;;;31.72;32.40;99093.59;5048255;28;20423;-63
2022/08/07 13:43:33;;;;;;;1.75;1.20;;;;;;;31.10;32.88;99085.69;5034568;28;20052;-62